sensor_id;sensor_type;location;lat;lon;timestamp;temperature;humidity
352;DHT22;164;50.784;6.496;2022-09-27T00:00:45;10.10;51.40
352;DHT22;164;50.784;6.496;2022-09-27T00:03:12;10.00;51.30
352;DHT22;164;50.784;6.496;2022-09-27T00:05:49;10.00;51.30
352;DHT22;164;50.784;6.496;2022-09-27T00:08:17;10.00;51.30
352;DHT22;164;50.784;6.496;2022-09-27T00:10:44;9.90;52.20
352;DHT22;164;50.784;6.496;2022-09-27T00:13:11;9.90;52.20
352;DHT22;164;50.784;6.496;2022-09-27T00:15:38;9.90;52.20
352;DHT22;164;50.784;6.496;2022-09-27T00:18:06;9.90;54.60
352;DHT22;164;50.784;6.496;2022-09-27T00:20:35;9.80;57.50
352;DHT22;164;50.784;6.496;2022-09-27T00:23:12;9.80;63.40
352;DHT22;164;50.784;6.496;2022-09-27T00:25:41;9.80;62.20
352;DHT22;164;50.784;6.496;2022-09-27T00:28:08;9.70;65.50
352;DHT22;164;50.784;6.496;2022-09-27T00:30:40;9.80;63.00
352;DHT22;164;50.784;6.496;2022-09-27T00:33:09;9.70;68.80
352;DHT22;164;50.784;6.496;2022-09-27T00:35:37;9.70;66.80
352;DHT22;164;50.784;6.496;2022-09-27T00:38:04;9.80;70.00
352;DHT22;164;50.784;6.496;2022-09-27T00:40:31;9.80;69.30
352;DHT22;164;50.784;6.496;2022-09-27T00:43:21;9.80;70.30
352;DHT22;164;50.784;6.496;2022-09-27T00:45:54;9.70;66.70
352;DHT22;164;50.784;6.496;2022-09-27T00:48:25;9.70;66.30
352;DHT22;164;50.784;6.496;2022-09-27T00:50:57;9.70;68.10
352;DHT22;164;50.784;6.496;2022-09-27T00:53:29;9.70;70.70
352;DHT22;164;50.784;6.496;2022-09-27T00:56:00;9.70;70.50
352;DHT22;164;50.784;6.496;2022-09-27T00:58:31;9.70;71.00
352;DHT22;164;50.784;6.496;2022-09-27T01:01:02;9.70;70.40
352;DHT22;164;50.784;6.496;2022-09-27T01:03:35;9.70;70.60
352;DHT22;164;50.784;6.496;2022-09-27T01:06:06;9.70;73.40
352;DHT22;164;50.784;6.496;2022-09-27T01:08:33;9.80;72.10
352;DHT22;164;50.784;6.496;2022-09-27T01:11:13;9.80;72.40
352;DHT22;164;50.784;6.496;2022-09-27T01:13:58;9.70;74.10
352;DHT22;164;50.784;6.496;2022-09-27T01:16:35;9.80;75.60
352;DHT22;164;50.784;6.496;2022-09-27T01:19:12;9.80;75.40
352;DHT22;164;50.784;6.496;2022-09-27T01:21:51;9.80;74.10
352;DHT22;164;50.784;6.496;2022-09-27T01:24:48;9.80;74.30
352;DHT22;164;50.784;6.496;2022-09-27T01:27:41;9.70;72.60
352;DHT22;164;50.784;6.496;2022-09-27T01:30:21;9.80;72.00
352;DHT22;164;50.784;6.496;2022-09-27T01:33:00;9.80;73.50
352;DHT22;164;50.784;6.496;2022-09-27T01:35:35;9.80;72.70
352;DHT22;164;50.784;6.496;2022-09-27T01:38:13;9.80;71.50
352;DHT22;164;50.784;6.496;2022-09-27T01:40:48;9.80;74.30
352;DHT22;164;50.784;6.496;2022-09-27T01:43:21;9.80;78.50
352;DHT22;164;50.784;6.496;2022-09-27T01:45:55;9.80;77.60
352;DHT22;164;50.784;6.496;2022-09-27T01:48:29;9.80;79.90
352;DHT22;164;50.784;6.496;2022-09-27T01:51:03;9.80;78.50
352;DHT22;164;50.784;6.496;2022-09-27T01:53:47;9.80;77.80
352;DHT22;164;50.784;6.496;2022-09-27T01:56:20;9.80;77.90
352;DHT22;164;50.784;6.496;2022-09-27T01:58:52;9.70;78.00
352;DHT22;164;50.784;6.496;2022-09-27T02:01:24;9.70;78.00
352;DHT22;164;50.784;6.496;2022-09-27T02:03:53;9.70;78.20
352;DHT22;164;50.784;6.496;2022-09-27T02:06:25;9.70;79.30
352;DHT22;164;50.784;6.496;2022-09-27T02:08:58;9.70;79.80
352;DHT22;164;50.784;6.496;2022-09-27T02:11:31;9.60;76.60
352;DHT22;164;50.784;6.496;2022-09-27T02:14:03;9.50;72.90
352;DHT22;164;50.784;6.496;2022-09-27T02:16:43;9.50;78.90
352;DHT22;164;50.784;6.496;2022-09-27T02:19:17;9.50;74.10
352;DHT22;164;50.784;6.496;2022-09-27T02:21:54;9.50;76.40
352;DHT22;164;50.784;6.496;2022-09-27T02:24:31;9.50;74.90
352;DHT22;164;50.784;6.496;2022-09-27T02:27:08;9.50;72.10
352;DHT22;164;50.784;6.496;2022-09-27T02:29:41;9.50;72.70
352;DHT22;164;50.784;6.496;2022-09-27T02:32:12;9.50;69.80
352;DHT22;164;50.784;6.496;2022-09-27T02:34:42;9.40;69.10
352;DHT22;164;50.784;6.496;2022-09-27T02:37:10;9.40;69.30
352;DHT22;164;50.784;6.496;2022-09-27T02:39:37;9.40;67.80
352;DHT22;164;50.784;6.496;2022-09-27T02:42:05;9.40;65.10
352;DHT22;164;50.784;6.496;2022-09-27T02:44:32;9.30;63.20
352;DHT22;164;50.784;6.496;2022-09-27T02:47:21;9.40;66.00
352;DHT22;164;50.784;6.496;2022-09-27T02:50:06;9.30;57.80
352;DHT22;164;50.784;6.496;2022-09-27T02:52:44;9.30;60.60
352;DHT22;164;50.784;6.496;2022-09-27T02:55:20;9.20;61.50
352;DHT22;164;50.784;6.496;2022-09-27T02:57:59;9.20;61.70
352;DHT22;164;50.784;6.496;2022-09-27T03:00:44;9.20;57.90
352;DHT22;164;50.784;6.496;2022-09-27T03:03:27;9.20;59.70
352;DHT22;164;50.784;6.496;2022-09-27T03:06:08;9.20;65.50
352;DHT22;164;50.784;6.496;2022-09-27T03:08:37;9.10;57.80
352;DHT22;164;50.784;6.496;2022-09-27T03:11:05;9.10;61.30
352;DHT22;164;50.784;6.496;2022-09-27T03:13:32;9.10;63.00
352;DHT22;164;50.784;6.496;2022-09-27T03:16:03;9.10;67.00
352;DHT22;164;50.784;6.496;2022-09-27T03:18:32;9.10;67.70
352;DHT22;164;50.784;6.496;2022-09-27T03:20:59;9.10;67.80
352;DHT22;164;50.784;6.496;2022-09-27T03:23:26;9.20;67.80
352;DHT22;164;50.784;6.496;2022-09-27T03:25:53;9.20;67.20
352;DHT22;164;50.784;6.496;2022-09-27T03:28:20;9.20;67.40
352;DHT22;164;50.784;6.496;2022-09-27T03:30:48;9.20;69.40
352;DHT22;164;50.784;6.496;2022-09-27T03:33:15;9.20;69.80
352;DHT22;164;50.784;6.496;2022-09-27T03:35:43;9.10;67.40
352;DHT22;164;50.784;6.496;2022-09-27T03:38:10;9.10;65.20
352;DHT22;164;50.784;6.496;2022-09-27T03:40:37;9.10;61.10
352;DHT22;164;50.784;6.496;2022-09-27T03:43:05;9.10;57.40
352;DHT22;164;50.784;6.496;2022-09-27T03:45:32;9.10;57.40
352;DHT22;164;50.784;6.496;2022-09-27T03:47:59;9.10;60.40
352;DHT22;164;50.784;6.496;2022-09-27T03:50:26;9.10;56.40
352;DHT22;164;50.784;6.496;2022-09-27T03:52:55;9.10;55.90
352;DHT22;164;50.784;6.496;2022-09-27T03:55:22;9.10;53.90
352;DHT22;164;50.784;6.496;2022-09-27T03:57:49;9.10;52.90
352;DHT22;164;50.784;6.496;2022-09-27T04:00:16;9.10;51.60
352;DHT22;164;50.784;6.496;2022-09-27T04:02:44;9.00;51.50
352;DHT22;164;50.784;6.496;2022-09-27T04:05:11;9.00;51.40
352;DHT22;164;50.784;6.496;2022-09-27T04:07:38;9.00;51.40
352;DHT22;164;50.784;6.496;2022-09-27T04:10:08;9.00;51.40
352;DHT22;164;50.784;6.496;2022-09-27T04:12:35;9.00;51.40
352;DHT22;164;50.784;6.496;2022-09-27T04:15:06;8.90;51.30
352;DHT22;164;50.784;6.496;2022-09-27T04:17:33;9.00;51.50
352;DHT22;164;50.784;6.496;2022-09-27T04:20:00;8.90;51.40
352;DHT22;164;50.784;6.496;2022-09-27T04:22:29;8.90;51.40
352;DHT22;164;50.784;6.496;2022-09-27T04:24:57;8.80;51.30
352;DHT22;164;50.784;6.496;2022-09-27T04:27:25;8.80;51.20
352;DHT22;164;50.784;6.496;2022-09-27T04:29:52;8.80;51.30
352;DHT22;164;50.784;6.496;2022-09-27T04:32:20;8.80;47.70
352;DHT22;164;50.784;6.496;2022-09-27T04:34:48;8.70;46.10
352;DHT22;164;50.784;6.496;2022-09-27T04:37:32;8.70;48.60
352;DHT22;164;50.784;6.496;2022-09-27T04:40:14;8.70;53.50
352;DHT22;164;50.784;6.496;2022-09-27T04:42:46;8.70;45.50
352;DHT22;164;50.784;6.496;2022-09-27T04:45:13;8.70;44.10
352;DHT22;164;50.784;6.496;2022-09-27T04:47:42;8.70;45.20
352;DHT22;164;50.784;6.496;2022-09-27T04:50:09;8.70;43.90
352;DHT22;164;50.784;6.496;2022-09-27T04:52:36;8.60;37.00
352;DHT22;164;50.784;6.496;2022-09-27T04:55:06;8.60;39.70
352;DHT22;164;50.784;6.496;2022-09-27T04:57:33;8.60;37.20
352;DHT22;164;50.784;6.496;2022-09-27T05:00:04;8.60;37.90
352;DHT22;164;50.784;6.496;2022-09-27T05:02:31;8.60;38.70
352;DHT22;164;50.784;6.496;2022-09-27T05:04:58;8.60;39.60
352;DHT22;164;50.784;6.496;2022-09-27T05:07:25;8.60;36.50
352;DHT22;164;50.784;6.496;2022-09-27T05:09:53;8.60;38.20
352;DHT22;164;50.784;6.496;2022-09-27T05:12:20;8.70;40.30
352;DHT22;164;50.784;6.496;2022-09-27T05:14:47;8.70;37.80
352;DHT22;164;50.784;6.496;2022-09-27T05:17:35;8.80;38.20
352;DHT22;164;50.784;6.496;2022-09-27T05:20:16;8.80;35.90
352;DHT22;164;50.784;6.496;2022-09-27T05:22:43;8.80;33.40
352;DHT22;164;50.784;6.496;2022-09-27T05:25:11;8.90;32.50
352;DHT22;164;50.784;6.496;2022-09-27T05:27:38;8.90;29.50
352;DHT22;164;50.784;6.496;2022-09-27T05:30:06;9.00;31.10
352;DHT22;164;50.784;6.496;2022-09-27T05:32:35;8.90;24.30
352;DHT22;164;50.784;6.496;2022-09-27T05:35:06;8.90;21.70
352;DHT22;164;50.784;6.496;2022-09-27T05:37:34;8.90;21.80
352;DHT22;164;50.784;6.496;2022-09-27T05:40:13;8.90;22.80
352;DHT22;164;50.784;6.496;2022-09-27T05:42:40;8.90;25.60
352;DHT22;164;50.784;6.496;2022-09-27T05:45:08;8.90;33.40
352;DHT22;164;50.784;6.496;2022-09-27T05:47:38;8.80;37.60
352;DHT22;164;50.784;6.496;2022-09-27T05:50:05;8.80;38.00
352;DHT22;164;50.784;6.496;2022-09-27T05:52:34;8.80;36.70
352;DHT22;164;50.784;6.496;2022-09-27T05:55:01;8.80;31.20
352;DHT22;164;50.784;6.496;2022-09-27T05:57:28;8.80;33.10
352;DHT22;164;50.784;6.496;2022-09-27T05:59:55;8.70;30.40
352;DHT22;164;50.784;6.496;2022-09-27T06:02:23;8.70;29.90
352;DHT22;164;50.784;6.496;2022-09-27T06:04:51;8.70;31.70
352;DHT22;164;50.784;6.496;2022-09-27T06:07:19;8.80;32.80
352;DHT22;164;50.784;6.496;2022-09-27T06:09:46;8.80;32.30
352;DHT22;164;50.784;6.496;2022-09-27T06:12:13;8.80;30.50
352;DHT22;164;50.784;6.496;2022-09-27T06:14:41;8.90;32.70
352;DHT22;164;50.784;6.496;2022-09-27T06:17:08;8.90;31.90
352;DHT22;164;50.784;6.496;2022-09-27T06:19:35;8.90;29.60
352;DHT22;164;50.784;6.496;2022-09-27T06:22:03;8.90;29.00
352;DHT22;164;50.784;6.496;2022-09-27T06:24:30;8.90;26.10
352;DHT22;164;50.784;6.496;2022-09-27T06:26:58;8.90;27.40
352;DHT22;164;50.784;6.496;2022-09-27T06:29:25;8.90;27.00
352;DHT22;164;50.784;6.496;2022-09-27T06:31:55;8.90;26.60
352;DHT22;164;50.784;6.496;2022-09-27T06:34:36;8.90;24.70
352;DHT22;164;50.784;6.496;2022-09-27T06:37:05;8.90;24.40
352;DHT22;164;50.784;6.496;2022-09-27T06:39:32;8.90;22.60
352;DHT22;164;50.784;6.496;2022-09-27T06:42:00;8.90;22.20
352;DHT22;164;50.784;6.496;2022-09-27T06:44:27;8.90;24.10
352;DHT22;164;50.784;6.496;2022-09-27T06:46:54;8.90;18.90
352;DHT22;164;50.784;6.496;2022-09-27T06:49:21;8.90;18.50
352;DHT22;164;50.784;6.496;2022-09-27T06:51:50;8.90;16.80
352;DHT22;164;50.784;6.496;2022-09-27T06:54:19;8.90;19.90
352;DHT22;164;50.784;6.496;2022-09-27T06:56:46;8.80;17.80
352;DHT22;164;50.784;6.496;2022-09-27T06:59:14;8.80;16.40
352;DHT22;164;50.784;6.496;2022-09-27T07:01:59;8.80;16.40
352;DHT22;164;50.784;6.496;2022-09-27T07:04:26;8.90;15.00
352;DHT22;164;50.784;6.496;2022-09-27T07:06:53;9.00;16.30
352;DHT22;164;50.784;6.496;2022-09-27T07:09:22;9.10;13.80
352;DHT22;164;50.784;6.496;2022-09-27T07:11:50;9.10;12.60
352;DHT22;164;50.784;6.496;2022-09-27T07:14:19;9.20;6.70
352;DHT22;164;50.784;6.496;2022-09-27T07:16:46;9.20;1.00
352;DHT22;164;50.784;6.496;2022-09-27T07:19:13;9.20;1.00
352;DHT22;164;50.784;6.496;2022-09-27T07:21:40;9.30;1.00
352;DHT22;164;50.784;6.496;2022-09-27T07:24:07;9.30;1.00
352;DHT22;164;50.784;6.496;2022-09-27T07:26:36;9.40;1.00
352;DHT22;164;50.784;6.496;2022-09-27T07:29:03;9.50;1.00
352;DHT22;164;50.784;6.496;2022-09-27T07:31:30;9.70;1.00
352;DHT22;164;50.784;6.496;2022-09-27T07:33:57;9.80;1.00
352;DHT22;164;50.784;6.496;2022-09-27T07:36:24;9.90;1.00
352;DHT22;164;50.784;6.496;2022-09-27T07:38:51;10.00;1.00
352;DHT22;164;50.784;6.496;2022-09-27T07:41:19;10.00;1.00
352;DHT22;164;50.784;6.496;2022-09-27T07:43:47;10.00;1.00
352;DHT22;164;50.784;6.496;2022-09-27T07:46:14;10.00;1.00
352;DHT22;164;50.784;6.496;2022-09-27T07:48:42;10.00;1.00
352;DHT22;164;50.784;6.496;2022-09-27T07:51:11;10.00;1.00
352;DHT22;164;50.784;6.496;2022-09-27T07:53:38;10.10;1.00
352;DHT22;164;50.784;6.496;2022-09-27T07:56:06;10.10;1.00
352;DHT22;164;50.784;6.496;2022-09-27T07:58:33;10.10;1.00
352;DHT22;164;50.784;6.496;2022-09-27T08:01:01;10.30;1.00
352;DHT22;164;50.784;6.496;2022-09-27T08:03:28;10.40;1.00
352;DHT22;164;50.784;6.496;2022-09-27T08:05:56;10.50;1.00
352;DHT22;164;50.784;6.496;2022-09-27T08:08:23;10.50;1.00
352;DHT22;164;50.784;6.496;2022-09-27T08:10:51;10.40;1.00
352;DHT22;164;50.784;6.496;2022-09-27T08:13:18;10.40;1.00
352;DHT22;164;50.784;6.496;2022-09-27T08:15:45;10.40;1.00
352;DHT22;164;50.784;6.496;2022-09-27T08:18:14;10.50;1.00
352;DHT22;164;50.784;6.496;2022-09-27T08:20:42;10.50;1.00
352;DHT22;164;50.784;6.496;2022-09-27T08:23:09;10.60;1.00
352;DHT22;164;50.784;6.496;2022-09-27T08:25:36;10.60;1.00
352;DHT22;164;50.784;6.496;2022-09-27T08:28:05;10.60;1.00
352;DHT22;164;50.784;6.496;2022-09-27T08:30:32;10.60;1.00
352;DHT22;164;50.784;6.496;2022-09-27T08:33:00;10.70;1.00
352;DHT22;164;50.784;6.496;2022-09-27T08:35:31;10.80;1.00
352;DHT22;164;50.784;6.496;2022-09-27T08:38:00;10.90;1.00
352;DHT22;164;50.784;6.496;2022-09-27T08:40:35;11.00;1.00
352;DHT22;164;50.784;6.496;2022-09-27T08:43:12;10.90;1.00
352;DHT22;164;50.784;6.496;2022-09-27T08:45:54;11.00;1.00
352;DHT22;164;50.784;6.496;2022-09-27T08:48:24;11.00;1.00
352;DHT22;164;50.784;6.496;2022-09-27T08:50:55;11.10;1.00
352;DHT22;164;50.784;6.496;2022-09-27T08:53:26;11.00;1.00
352;DHT22;164;50.784;6.496;2022-09-27T08:55:54;11.00;1.00
352;DHT22;164;50.784;6.496;2022-09-27T08:58:25;11.00;1.00
352;DHT22;164;50.784;6.496;2022-09-27T09:00:55;11.10;1.00
352;DHT22;164;50.784;6.496;2022-09-27T09:03:24;11.20;1.00
352;DHT22;164;50.784;6.496;2022-09-27T09:06:09;11.30;1.00
352;DHT22;164;50.784;6.496;2022-09-27T09:08:45;11.50;1.00
352;DHT22;164;50.784;6.496;2022-09-27T09:11:24;11.50;1.00
352;DHT22;164;50.784;6.496;2022-09-27T09:17:15;11.70;1.00
352;DHT22;164;50.784;6.496;2022-09-27T09:19:55;11.70;1.00
352;DHT22;164;50.784;6.496;2022-09-27T09:22:39;11.70;1.00
352;DHT22;164;50.784;6.496;2022-09-27T09:25:21;11.50;1.00
352;DHT22;164;50.784;6.496;2022-09-27T09:28:05;11.40;1.00
352;DHT22;164;50.784;6.496;2022-09-27T09:30:42;11.30;1.00
352;DHT22;164;50.784;6.496;2022-09-27T09:33:17;11.40;1.00
352;DHT22;164;50.784;6.496;2022-09-27T09:35:51;11.50;1.00
352;DHT22;164;50.784;6.496;2022-09-27T09:38:29;11.70;1.00
352;DHT22;164;50.784;6.496;2022-09-27T09:41:04;11.70;1.00
352;DHT22;164;50.784;6.496;2022-09-27T09:43:36;11.80;1.00
352;DHT22;164;50.784;6.496;2022-09-27T09:46:11;11.90;1.00
352;DHT22;164;50.784;6.496;2022-09-27T09:48:44;12.00;1.00
352;DHT22;164;50.784;6.496;2022-09-27T09:51:17;12.20;1.00
352;DHT22;164;50.784;6.496;2022-09-27T09:53:52;12.20;1.00
352;DHT22;164;50.784;6.496;2022-09-27T09:56:24;12.30;1.00
352;DHT22;164;50.784;6.496;2022-09-27T09:58:55;12.30;1.00
352;DHT22;164;50.784;6.496;2022-09-27T10:01:26;12.30;1.00
352;DHT22;164;50.784;6.496;2022-09-27T10:03:54;12.30;1.00
352;DHT22;164;50.784;6.496;2022-09-27T10:06:23;12.20;1.00
352;DHT22;164;50.784;6.496;2022-09-27T10:08:52;12.10;1.00
352;DHT22;164;50.784;6.496;2022-09-27T10:11:23;11.80;1.00
352;DHT22;164;50.784;6.496;2022-09-27T10:13:51;11.50;1.00
352;DHT22;164;50.784;6.496;2022-09-27T10:16:20;11.50;1.00
352;DHT22;164;50.784;6.496;2022-09-27T10:18:49;11.40;1.00
352;DHT22;164;50.784;6.496;2022-09-27T10:21:20;11.40;1.00
352;DHT22;164;50.784;6.496;2022-09-27T10:24:10;11.40;1.00
352;DHT22;164;50.784;6.496;2022-09-27T10:26:39;11.30;1.00
352;DHT22;164;50.784;6.496;2022-09-27T10:29:19;11.30;1.00
352;DHT22;164;50.784;6.496;2022-09-27T10:31:48;11.30;1.00
352;DHT22;164;50.784;6.496;2022-09-27T10:34:36;11.30;1.00
352;DHT22;164;50.784;6.496;2022-09-27T10:37:09;11.40;1.00
352;DHT22;164;50.784;6.496;2022-09-27T10:39:43;11.50;1.00
352;DHT22;164;50.784;6.496;2022-09-27T10:42:32;11.70;1.00
352;DHT22;164;50.784;6.496;2022-09-27T10:45:23;11.80;1.00
352;DHT22;164;50.784;6.496;2022-09-27T10:47:51;11.70;1.00
352;DHT22;164;50.784;6.496;2022-09-27T10:50:20;11.70;1.00
352;DHT22;164;50.784;6.496;2022-09-27T10:52:59;11.70;1.00
352;DHT22;164;50.784;6.496;2022-09-27T10:55:32;11.80;1.00
352;DHT22;164;50.784;6.496;2022-09-27T10:58:00;11.70;1.00
352;DHT22;164;50.784;6.496;2022-09-27T11:00:30;11.70;1.00
352;DHT22;164;50.784;6.496;2022-09-27T11:03:00;11.70;1.00
352;DHT22;164;50.784;6.496;2022-09-27T11:05:32;11.70;1.00
352;DHT22;164;50.784;6.496;2022-09-27T11:08:02;11.70;1.00
352;DHT22;164;50.784;6.496;2022-09-27T11:10:32;11.60;1.00
352;DHT22;164;50.784;6.496;2022-09-27T11:13:09;11.60;1.00
352;DHT22;164;50.784;6.496;2022-09-27T11:15:45;11.70;1.00
352;DHT22;164;50.784;6.496;2022-09-27T11:18:22;11.70;1.00
352;DHT22;164;50.784;6.496;2022-09-27T11:20:57;11.70;1.00
352;DHT22;164;50.784;6.496;2022-09-27T11:23:46;11.70;1.00
352;DHT22;164;50.784;6.496;2022-09-27T11:26:26;11.90;1.00
352;DHT22;164;50.784;6.496;2022-09-27T11:29:00;12.00;1.00
352;DHT22;164;50.784;6.496;2022-09-27T11:31:40;12.00;1.00
352;DHT22;164;50.784;6.496;2022-09-27T11:34:37;12.00;1.00
352;DHT22;164;50.784;6.496;2022-09-27T11:37:15;11.90;1.00
352;DHT22;164;50.784;6.496;2022-09-27T11:40:00;11.80;1.00
352;DHT22;164;50.784;6.496;2022-09-27T11:42:56;11.80;1.00
352;DHT22;164;50.784;6.496;2022-09-27T11:45:35;11.80;1.00
352;DHT22;164;50.784;6.496;2022-09-27T11:48:14;11.90;1.00
352;DHT22;164;50.784;6.496;2022-09-27T11:50:56;11.80;1.00
352;DHT22;164;50.784;6.496;2022-09-27T11:53:46;11.90;1.00
352;DHT22;164;50.784;6.496;2022-09-27T11:56:22;11.70;1.00
352;DHT22;164;50.784;6.496;2022-09-27T11:59:07;11.60;1.00
352;DHT22;164;50.784;6.496;2022-09-27T12:01:43;11.50;1.00
352;DHT22;164;50.784;6.496;2022-09-27T12:04:25;11.60;1.00
352;DHT22;164;50.784;6.496;2022-09-27T12:06:59;11.70;1.00
352;DHT22;164;50.784;6.496;2022-09-27T12:09:32;11.90;1.00
352;DHT22;164;50.784;6.496;2022-09-27T12:12:03;12.00;1.00
352;DHT22;164;50.784;6.496;2022-09-27T12:14:36;12.00;1.00
352;DHT22;164;50.784;6.496;2022-09-27T12:17:10;12.10;1.00
352;DHT22;164;50.784;6.496;2022-09-27T12:19:40;12.00;1.00
352;DHT22;164;50.784;6.496;2022-09-27T12:22:13;12.00;1.00
352;DHT22;164;50.784;6.496;2022-09-27T12:24:41;12.00;1.00
352;DHT22;164;50.784;6.496;2022-09-27T12:27:14;12.10;1.00
352;DHT22;164;50.784;6.496;2022-09-27T12:29:44;12.20;1.00
352;DHT22;164;50.784;6.496;2022-09-27T12:32:16;12.10;1.00
352;DHT22;164;50.784;6.496;2022-09-27T12:34:48;12.20;1.00
352;DHT22;164;50.784;6.496;2022-09-27T12:37:19;12.20;1.00
352;DHT22;164;50.784;6.496;2022-09-27T12:39:51;12.20;1.00
352;DHT22;164;50.784;6.496;2022-09-27T12:42:22;12.20;1.00
352;DHT22;164;50.784;6.496;2022-09-27T12:44:52;12.10;1.00
352;DHT22;164;50.784;6.496;2022-09-27T12:47:41;12.10;1.00
352;DHT22;164;50.784;6.496;2022-09-27T12:50:14;12.10;1.00
352;DHT22;164;50.784;6.496;2022-09-27T12:52:45;12.10;1.00
352;DHT22;164;50.784;6.496;2022-09-27T12:58:43;11.90;1.00
352;DHT22;164;50.784;6.496;2022-09-27T13:01:21;11.70;1.00
352;DHT22;164;50.784;6.496;2022-09-27T13:04:14;11.60;1.00
352;DHT22;164;50.784;6.496;2022-09-27T13:07:01;11.40;1.00
352;DHT22;164;50.784;6.496;2022-09-27T13:09:44;11.10;1.00
352;DHT22;164;50.784;6.496;2022-09-27T13:12:17;10.90;1.00
352;DHT22;164;50.784;6.496;2022-09-27T13:14:57;10.90;1.00
352;DHT22;164;50.784;6.496;2022-09-27T13:17:54;11.00;1.00
352;DHT22;164;50.784;6.496;2022-09-27T13:20:40;11.10;1.00
352;DHT22;164;50.784;6.496;2022-09-27T13:26:47;11.30;1.00
352;DHT22;164;50.784;6.496;2022-09-27T13:29:26;11.40;1.00
352;DHT22;164;50.784;6.496;2022-09-27T13:34:46;11.60;1.00
352;DHT22;164;50.784;6.496;2022-09-27T13:37:42;11.80;1.00
352;DHT22;164;50.784;6.496;2022-09-27T13:40:26;11.90;1.00
352;DHT22;164;50.784;6.496;2022-09-27T13:45:53;11.80;1.00
352;DHT22;164;50.784;6.496;2022-09-27T13:48:26;11.80;1.00
352;DHT22;164;50.784;6.496;2022-09-27T13:51:00;11.90;1.00
352;DHT22;164;50.784;6.496;2022-09-27T13:53:31;12.00;1.00
352;DHT22;164;50.784;6.496;2022-09-27T13:55:59;12.10;1.00
352;DHT22;164;50.784;6.496;2022-09-27T14:01:17;12.40;1.00
352;DHT22;164;50.784;6.496;2022-09-27T14:03:53;12.40;1.00
352;DHT22;164;50.784;6.496;2022-09-27T14:06:25;12.30;1.00
352;DHT22;164;50.784;6.496;2022-09-27T14:08:57;12.30;1.00
352;DHT22;164;50.784;6.496;2022-09-27T14:11:27;12.40;1.00
352;DHT22;164;50.784;6.496;2022-09-27T14:13:56;12.40;1.00
352;DHT22;164;50.784;6.496;2022-09-27T14:16:33;12.50;1.00
352;DHT22;164;50.784;6.496;2022-09-27T14:19:02;12.60;1.00
352;DHT22;164;50.784;6.496;2022-09-27T14:21:32;12.70;1.00
352;DHT22;164;50.784;6.496;2022-09-27T14:24:22;12.60;1.00
352;DHT22;164;50.784;6.496;2022-09-27T14:27:02;12.40;1.00
352;DHT22;164;50.784;6.496;2022-09-27T14:29:31;12.20;1.00
352;DHT22;164;50.784;6.496;2022-09-27T14:32:03;12.00;1.00
352;DHT22;164;50.784;6.496;2022-09-27T14:34:31;11.80;1.00
352;DHT22;164;50.784;6.496;2022-09-27T14:36:59;11.70;1.00
352;DHT22;164;50.784;6.496;2022-09-27T14:39:40;11.60;1.00
352;DHT22;164;50.784;6.496;2022-09-27T14:42:17;10.80;1.00
352;DHT22;164;50.784;6.496;2022-09-27T14:44:46;10.30;1.00
352;DHT22;164;50.784;6.496;2022-09-27T14:47:17;9.80;1.00
352;DHT22;164;50.784;6.496;2022-09-27T14:49:46;9.50;1.00
352;DHT22;164;50.784;6.496;2022-09-27T14:52:20;9.30;1.00
352;DHT22;164;50.784;6.496;2022-09-27T14:54:58;9.00;1.00
352;DHT22;164;50.784;6.496;2022-09-27T14:57:26;8.80;1.00
352;DHT22;164;50.784;6.496;2022-09-27T14:59:54;8.80;1.00
352;DHT22;164;50.784;6.496;2022-09-27T15:02:24;8.90;1.00
352;DHT22;164;50.784;6.496;2022-09-27T15:04:52;8.90;1.10
352;DHT22;164;50.784;6.496;2022-09-27T15:07:22;9.10;9.70
352;DHT22;164;50.784;6.496;2022-09-27T15:09:49;9.40;22.30
352;DHT22;164;50.784;6.496;2022-09-27T15:12:23;9.60;20.90
352;DHT22;164;50.784;6.496;2022-09-27T15:14:53;9.60;1.00
352;DHT22;164;50.784;6.496;2022-09-27T15:17:21;9.70;1.00
352;DHT22;164;50.784;6.496;2022-09-27T15:19:57;9.90;1.00
352;DHT22;164;50.784;6.496;2022-09-27T15:22:39;10.00;1.00
352;DHT22;164;50.784;6.496;2022-09-27T15:25:17;10.20;1.00
352;DHT22;164;50.784;6.496;2022-09-27T15:27:50;10.30;1.00
352;DHT22;164;50.784;6.496;2022-09-27T15:30:20;10.50;1.00
352;DHT22;164;50.784;6.496;2022-09-27T15:32:52;10.60;1.00
352;DHT22;164;50.784;6.496;2022-09-27T15:35:26;10.50;1.00
352;DHT22;164;50.784;6.496;2022-09-27T15:38:12;10.60;1.00
352;DHT22;164;50.784;6.496;2022-09-27T15:40:58;10.70;1.00
352;DHT22;164;50.784;6.496;2022-09-27T15:43:27;11.40;1.00
352;DHT22;164;50.784;6.496;2022-09-27T15:45:57;12.00;1.00
352;DHT22;164;50.784;6.496;2022-09-27T15:48:27;11.80;1.00
352;DHT22;164;50.784;6.496;2022-09-27T15:50:54;11.60;1.00
352;DHT22;164;50.784;6.496;2022-09-27T15:53:42;11.60;1.00
352;DHT22;164;50.784;6.496;2022-09-27T15:56:13;11.60;1.00
352;DHT22;164;50.784;6.496;2022-09-27T15:58:41;11.70;1.00
352;DHT22;164;50.784;6.496;2022-09-27T16:01:18;11.70;1.00
352;DHT22;164;50.784;6.496;2022-09-27T16:03:47;11.50;1.00
352;DHT22;164;50.784;6.496;2022-09-27T16:06:15;11.40;1.00
352;DHT22;164;50.784;6.496;2022-09-27T16:08:44;11.40;1.00
352;DHT22;164;50.784;6.496;2022-09-27T16:11:13;11.40;1.00
352;DHT22;164;50.784;6.496;2022-09-27T16:13:41;11.30;1.00
352;DHT22;164;50.784;6.496;2022-09-27T16:16:15;11.30;1.00
352;DHT22;164;50.784;6.496;2022-09-27T16:18:43;11.30;1.00
352;DHT22;164;50.784;6.496;2022-09-27T16:21:11;11.40;1.00
352;DHT22;164;50.784;6.496;2022-09-27T16:23:38;11.40;1.00
352;DHT22;164;50.784;6.496;2022-09-27T16:26:06;11.40;1.00
352;DHT22;164;50.784;6.496;2022-09-27T16:28:34;11.40;1.00
352;DHT22;164;50.784;6.496;2022-09-27T16:31:02;11.30;1.00
352;DHT22;164;50.784;6.496;2022-09-27T16:33:30;11.30;1.00
352;DHT22;164;50.784;6.496;2022-09-27T16:35:58;11.30;1.00
352;DHT22;164;50.784;6.496;2022-09-27T16:38:27;11.30;1.00
352;DHT22;164;50.784;6.496;2022-09-27T16:40:59;11.30;1.00
352;DHT22;164;50.784;6.496;2022-09-27T16:43:28;11.10;1.00
352;DHT22;164;50.784;6.496;2022-09-27T16:46:03;11.10;1.00
352;DHT22;164;50.784;6.496;2022-09-27T16:48:33;11.10;1.00
352;DHT22;164;50.784;6.496;2022-09-27T16:51:10;11.10;1.00
352;DHT22;164;50.784;6.496;2022-09-27T16:53:55;11.00;1.00
352;DHT22;164;50.784;6.496;2022-09-27T16:56:22;11.00;1.00
352;DHT22;164;50.784;6.496;2022-09-27T16:58:51;11.00;1.00
352;DHT22;164;50.784;6.496;2022-09-27T17:01:19;10.90;1.00
352;DHT22;164;50.784;6.496;2022-09-27T17:03:48;10.90;1.00
352;DHT22;164;50.784;6.496;2022-09-27T17:06:16;10.90;1.00
352;DHT22;164;50.784;6.496;2022-09-27T17:08:44;10.80;1.00
352;DHT22;164;50.784;6.496;2022-09-27T17:11:12;10.90;1.00
352;DHT22;164;50.784;6.496;2022-09-27T17:13:41;10.80;1.00
352;DHT22;164;50.784;6.496;2022-09-27T17:16:09;10.80;1.00
352;DHT22;164;50.784;6.496;2022-09-27T17:18:37;10.80;1.00
352;DHT22;164;50.784;6.496;2022-09-27T17:21:06;10.90;1.00
352;DHT22;164;50.784;6.496;2022-09-27T17:23:34;10.90;1.00
352;DHT22;164;50.784;6.496;2022-09-27T17:26:06;10.90;1.00
352;DHT22;164;50.784;6.496;2022-09-27T17:28:34;11.00;1.00
352;DHT22;164;50.784;6.496;2022-09-27T17:31:03;11.10;1.00
352;DHT22;164;50.784;6.496;2022-09-27T17:33:32;11.10;1.00
352;DHT22;164;50.784;6.496;2022-09-27T17:36:09;11.10;1.00
352;DHT22;164;50.784;6.496;2022-09-27T17:38:37;11.20;1.00
352;DHT22;164;50.784;6.496;2022-09-27T17:41:06;11.30;1.00
352;DHT22;164;50.784;6.496;2022-09-27T17:43:35;11.20;1.00